Time;durP1;ratioP1;P1;durP2;ratioP2;P2;SDS_P1;SDS_P2;PMS_P1;PMS_P2;Temp;Humidity;BMP_temperature;BMP_pressure;BME280_temperature;BME280_humidity;BME280_pressure;Samples;Min_cycle;Max_cycle;Signal;HPM_P1;HPM_P2
2022/08/29 00:01:39;;;;;;;5.30;2.60;;;;;;;;;;4146934;28;20058;-38
2022/08/29 00:03:40;;;;;;;4.68;2.65;;;;;;;;;;4147014;28;20502;-38
2022/08/29 00:05:42;;;;;;;4.10;2.17;;;;;;;;;;4147026;28;20104;-39
2022/08/29 00:07:43;;;;;;;3.85;2.42;;;;;;;;;;4145581;28;20089;-40
2022/08/29 00:09:44;;;;;;;5.30;2.40;;;;;;;;;;4147013;28;20164;-38
2022/08/29 00:11:45;;;;;;;4.20;2.85;;;;;;;;;;4147222;28;20119;-38
2022/08/29 00:13:47;;;;;;;3.53;2.20;;;;;;;;;;4146483;28;20077;-39
2022/08/29 00:15:48;;;;;;;4.13;2.20;;;;;;;;;;4147135;28;20092;-38
2022/08/29 00:17:50;;;;;;;4.28;2.30;;;;;;;;;;4147068;28;20108;-39
2022/08/29 00:19:51;;;;;;;4.28;2.20;;;;;;;;;;4146910;28;20095;-39
2022/08/29 00:21:52;;;;;;;4.90;2.53;;;;;;;;;;4146966;28;20054;-39
2022/08/29 00:23:53;;;;;;;4.85;2.63;;;;;;;;;;4146629;28;20054;-38
2022/08/29 00:25:55;;;;;;;3.70;2.03;;;;;;;;;;4145460;28;20056;-38
2022/08/29 00:27:57;;;;;;;4.82;2.22;;;;;;;;;;4146358;28;20054;-38
2022/08/29 00:29:58;;;;;;;3.67;2.30;;;;;;;;;;4131976;28;20101;-38
2022/08/29 00:31:59;;;;;;;3.22;1.80;;;;;;;;;;4129528;28;20066;-39
2022/08/29 00:34:00;;;;;;;3.42;2.20;;;;;;;;;;4130647;28;20062;-39
2022/08/29 00:36:01;;;;;;;4.63;2.35;;;;;;;;;;4129486;28;20142;-39
2022/08/29 00:38:04;;;;;;;3.75;2.38;;;;;;;;;;4130414;28;20501;-42
2022/08/29 00:40:10;;;;;;;4.78;2.38;;;;;;;;;;4130763;28;20096;-40
2022/08/29 00:42:12;;;;;;;4.25;2.28;;;;;;;;;;4129136;28;20058;-39
2022/08/29 00:44:13;;;;;;;2.92;1.77;;;;;;;;;;4130126;28;20414;-38
2022/08/29 00:46:37;;;;;;;3.83;2.10;;;;;;;;;;4130701;28;20069;-38
2022/08/29 00:48:39;;;;;;;3.08;1.90;;;;;;;;;;4128977;28;20513;-37
2022/08/29 00:50:48;;;;;;;3.30;1.88;;;;;;;;;;4130447;28;20516;-37
2022/08/29 00:52:49;;;;;;;2.85;1.92;;;;;;;;;;4130561;28;20050;-37
2022/08/29 00:54:53;;;;;;;3.78;2.22;;;;;;;;;;4130592;28;20058;-39
2022/08/29 00:56:55;;;;;;;3.88;1.95;;;;;;;;;;4129114;28;20054;-39
2022/08/29 00:58:59;;;;;;;3.38;2.08;;;;;;;;;;4112613;28;20058;-38
2022/08/29 01:01:00;;;;;;;3.78;2.28;;;;;;;;;;4139254;28;20119;-38
2022/08/29 01:03:02;;;;;;;3.17;1.70;;;;;;;;;;4146650;28;20081;-39
2022/08/29 01:05:03;;;;;;;4.22;2.17;;;;;;;;;;4145245;28;20107;-40
2022/08/29 01:07:06;;;;;;;3.03;1.70;;;;;;;;;;4146481;28;20054;-39
2022/08/29 01:09:08;;;;;;;3.33;1.73;;;;;;;;;;4145138;28;20069;-40
2022/08/29 01:13:36;;;;;;;3.80;1.80;;;;;;;;;;4146234;28;20073;-40
2022/08/29 01:15:38;;;;;;;4.07;2.17;;;;;;;;;;4145116;28;20054;-39
2022/08/29 01:17:43;;;;;;;2.75;1.70;;;;;;;;;;4148004;28;20171;-40
2022/08/29 01:19:46;;;;;;;3.30;1.92;;;;;;;;;;4149623;28;20065;-39
2022/08/29 01:22:05;;;;;;;3.60;1.98;;;;;;;;;;4132469;28;20124;-39
2022/08/29 01:24:14;;;;;;;3.50;2.28;;;;;;;;;;4149639;28;20493;-39
2022/08/29 01:26:15;;;;;;;2.27;1.53;;;;;;;;;;4148174;28;20050;-39
2022/08/29 01:28:27;;;;;;;2.97;1.70;;;;;;;;;;4147669;28;20528;-39
2022/08/29 01:30:28;;;;;;;2.50;1.77;;;;;;;;;;4148168;28;20108;-40
2022/08/29 01:32:30;;;;;;;3.47;2.30;;;;;;;;;;4132084;28;20050;-39
2022/08/29 01:34:31;;;;;;;4.00;2.00;;;;;;;;;;4132844;28;20062;-40
2022/08/29 01:36:37;;;;;;;3.17;1.52;;;;;;;;;;4133442;28;20113;-39
2022/08/29 01:38:39;;;;;;;3.40;1.80;;;;;;;;;;4131386;28;20054;-39
2022/08/29 01:40:40;;;;;;;3.05;1.60;;;;;;;;;;4131783;28;20132;-39
2022/08/29 01:42:42;;;;;;;2.95;1.70;;;;;;;;;;4132909;28;20132;-39
2022/08/29 01:44:51;;;;;;;2.83;1.75;;;;;;;;;;4133295;28;20062;-39
2022/08/29 01:46:56;;;;;;;4.38;1.88;;;;;;;;;;4133063;28;20719;-40
2022/08/29 01:48:57;;;;;;;2.58;1.83;;;;;;;;;;4132854;28;20061;-39
2022/08/29 01:50:58;;;;;;;3.22;2.00;;;;;;;;;;4146531;28;20061;-39
2022/08/29 01:52:59;;;;;;;2.85;1.50;;;;;;;;;;4147587;28;20445;-39
2022/08/29 01:55:01;;;;;;;2.83;1.52;;;;;;;;;;4149193;28;20575;-40
2022/08/29 01:57:02;;;;;;;2.67;1.50;;;;;;;;;;4149032;28;20062;-39
2022/08/29 01:59:05;;;;;;;2.38;1.50;;;;;;;;;;4148977;28;20128;-39
2022/08/29 02:01:07;;;;;;;2.28;1.60;;;;;;;;;;4148975;28;20058;-39
2022/08/29 02:03:08;;;;;;;2.92;1.75;;;;;;;;;;4148912;28;20080;-39
2022/08/29 02:05:09;;;;;;;2.55;1.60;;;;;;;;;;4149142;28;20058;-39
2022/08/29 02:07:11;;;;;;;2.75;1.65;;;;;;;;;;4149097;28;20508;-41
2022/08/29 02:09:12;;;;;;;2.50;1.63;;;;;;;;;;4148644;28;20057;-39
2022/08/29 02:11:16;;;;;;;2.88;1.50;;;;;;;;;;4149096;28;20152;-39
2022/08/29 02:13:17;;;;;;;2.90;1.70;;;;;;;;;;4148356;28;20390;-38
2022/08/29 02:15:20;;;;;;;2.88;1.77;;;;;;;;;;4148873;28;20050;-38
2022/08/29 02:17:22;;;;;;;2.90;1.60;;;;;;;;;;4148689;28;20057;-39
2022/08/29 02:19:23;;;;;;;2.58;1.50;;;;;;;;;;4147435;28;20065;-39
2022/08/29 02:21:27;;;;;;;2.60;1.67;;;;;;;;;;4148588;28;20054;-39
2022/08/29 02:23:28;;;;;;;2.53;1.50;;;;;;;;;;4148750;28;20608;-38
2022/08/29 02:25:48;;;;;;;3.17;1.38;;;;;;;;;;4148540;28;20100;-39
2022/08/29 02:27:50;;;;;;;;;;;;;;;;;;4147746;28;20096;-39
2022/08/29 02:29:51;;;;;;;3.42;1.95;;;;;;;;;;4148346;28;19972;-39
2022/08/29 02:31:53;;;;;;;1.95;1.17;;;;;;;;;;4148609;28;20084;-39
2022/08/29 02:33:55;;;;;;;2.40;1.50;;;;;;;;;;4148361;28;20391;-39
2022/08/29 02:35:57;;;;;;;2.25;1.48;;;;;;;;;;4148352;28;20057;-39
2022/08/29 02:37:58;;;;;;;2.13;1.52;;;;;;;;;;4148351;28;20053;-39
2022/08/29 02:39:59;;;;;;;2.17;1.45;;;;;;;;;;4148202;28;20080;-39
2022/08/29 02:42:01;;;;;;;2.95;1.48;;;;;;;;;;4148448;28;20073;-39
2022/08/29 02:44:03;;;;;;;3.53;1.90;;;;;;;;;;4147859;28;20457;-39
2022/08/29 02:46:05;;;;;;;1.88;0.90;;;;;;;;;;4148201;28;20058;-38
2022/08/29 02:48:07;;;;;;;2.15;1.17;;;;;;;;;;4148335;28;20080;-39
2022/08/29 02:50:09;;;;;;;2.47;1.27;;;;;;;;;;4148019;28;20411;-39
2022/08/29 02:52:10;;;;;;;2.13;1.30;;;;;;;;;;4148127;28;20060;-39
2022/08/29 02:54:11;;;;;;;2.42;1.50;;;;;;;;;;4148434;28;20068;-38
2022/08/29 02:56:13;;;;;;;2.75;1.30;;;;;;;;;;4148108;28;20057;-39
2022/08/29 02:58:14;;;;;;;2.33;1.50;;;;;;;;;;4147559;28;20131;-39
2022/08/29 03:00:21;;;;;;;2.00;1.23;;;;;;;;;;4143739;28;20054;-38
2022/08/29 03:02:23;;;;;;;1.30;1.10;;;;;;;;;;4131620;28;20132;-39
2022/08/29 03:04:24;;;;;;;3.05;1.75;;;;;;;;;;4114724;28;20162;-38
2022/08/29 03:06:25;;;;;;;1.70;1.30;;;;;;;;;;4131861;28;20050;-39
2022/08/29 03:08:26;;;;;;;2.22;1.25;;;;;;;;;;4129437;28;20055;-40
2022/08/29 03:10:27;;;;;;;1.90;1.27;;;;;;;;;;4131281;28;20146;-39
2022/08/29 03:12:29;;;;;;;2.28;1.30;;;;;;;;;;4130206;28;20410;-38
2022/08/29 03:14:30;;;;;;;2.78;1.45;;;;;;;;;;4131709;28;20073;-39
2022/08/29 03:16:31;;;;;;;2.10;1.27;;;;;;;;;;4130406;28;20437;-39
2022/08/29 03:18:32;;;;;;;2.28;1.33;;;;;;;;;;4131479;28;20461;-39
2022/08/29 03:20:35;;;;;;;1.70;1.08;;;;;;;;;;4130397;28;20054;-40
2022/08/29 03:22:36;;;;;;;3.15;1.80;;;;;;;;;;4130282;28;20072;-39
2022/08/29 03:24:38;;;;;;;2.13;1.77;;;;;;;;;;4131492;28;20097;-39
2022/08/29 03:26:39;;;;;;;2.78;1.52;;;;;;;;;;4131524;28;20054;-38
2022/08/29 03:28:40;;;;;;;2.55;1.25;;;;;;;;;;4131033;28;20058;-39
2022/08/29 03:30:41;;;;;;;2.33;1.42;;;;;;;;;;4131295;28;20540;-39
2022/08/29 03:32:43;;;;;;;1.77;1.10;;;;;;;;;;4131290;28;20117;-39
2022/08/29 03:34:44;;;;;;;2.42;1.23;;;;;;;;;;4131599;28;20104;-39
2022/08/29 03:36:46;;;;;;;1.90;1.20;;;;;;;;;;4131191;28;20078;-39
2022/08/29 03:38:47;;;;;;;2.50;1.38;;;;;;;;;;4129419;28;20152;-39
2022/08/29 03:40:48;;;;;;;2.50;1.35;;;;;;;;;;4130144;28;20105;-39
2022/08/29 03:42:50;;;;;;;2.15;1.45;;;;;;;;;;4130609;28;20057;-38
2022/08/29 03:44:52;;;;;;;1.45;1.05;;;;;;;;;;4131230;28;20117;-38
2022/08/29 03:46:53;;;;;;;2.00;0.95;;;;;;;;;;4131194;28;20058;-40
2022/08/29 03:48:54;;;;;;;1.73;1.30;;;;;;;;;;4130872;28;20454;-39
2022/08/29 03:50:56;;;;;;;1.67;1.13;;;;;;;;;;4145757;28;20111;-39
2022/08/29 03:52:58;;;;;;;1.98;1.10;;;;;;;;;;4147095;28;20410;-39
2022/08/29 03:54:59;;;;;;;1.45;1.10;;;;;;;;;;4147240;28;20140;-39
2022/08/29 03:57:00;;;;;;;1.55;1.13;;;;;;;;;;4147605;28;20096;-39
2022/08/29 03:59:02;;;;;;;1.88;1.05;;;;;;;;;;4146624;28;20059;-38
2022/08/29 04:01:03;;;;;;;1.58;0.95;;;;;;;;;;4146840;28;20109;-39
2022/08/29 04:03:05;;;;;;;1.77;0.85;;;;;;;;;;4147107;28;20065;-39
2022/08/29 04:05:07;;;;;;;1.55;0.85;;;;;;;;;;4146878;28;20061;-39
2022/08/29 04:07:08;;;;;;;0.98;0.50;;;;;;;;;;4147047;28;20115;-39
2022/08/29 04:09:10;;;;;;;1.80;0.95;;;;;;;;;;4146007;28;20065;-39
2022/08/29 04:11:12;;;;;;;1.00;0.70;;;;;;;;;;4145582;28;20510;-39
2022/08/29 04:13:14;;;;;;;2.03;0.68;;;;;;;;;;4146025;28;20065;-39
2022/08/29 04:15:15;;;;;;;1.02;0.60;;;;;;;;;;4146955;28;20421;-39
2022/08/29 04:17:16;;;;;;;0.95;0.60;;;;;;;;;;4146657;28;20512;-39
2022/08/29 04:19:19;;;;;;;0.75;0.55;;;;;;;;;;4146898;28;20184;-39
2022/08/29 04:21:20;;;;;;;0.98;0.52;;;;;;;;;;4146955;28;20111;-39
2022/08/29 04:23:21;;;;;;;0.82;0.50;;;;;;;;;;4146879;28;20112;-39
2022/08/29 04:25:24;;;;;;;0.98;0.52;;;;;;;;;;4146872;28;20058;-39
2022/08/29 04:27:26;;;;;;;1.63;0.50;;;;;;;;;;4146581;28;20102;-38
2022/08/29 04:29:27;;;;;;;1.05;0.50;;;;;;;;;;4134582;28;20050;-39
2022/08/29 04:31:28;;;;;;;1.30;0.60;;;;;;;;;;4129143;28;20469;-39
2022/08/29 04:33:30;;;;;;;0.77;0.73;;;;;;;;;;4129140;28;20128;-39
2022/08/29 04:35:31;;;;;;;0.50;0.30;;;;;;;;;;4129043;28;20102;-39
2022/08/29 04:37:32;;;;;;;0.75;0.40;;;;;;;;;;4130222;28;20062;-40
2022/08/29 04:39:33;;;;;;;0.75;0.50;;;;;;;;;;4130377;28;20101;-39
2022/08/29 04:41:35;;;;;;;1.10;0.50;;;;;;;;;;4130720;28;20050;-39
2022/08/29 04:43:36;;;;;;;0.68;0.45;;;;;;;;;;4130266;28;20058;-38
2022/08/29 04:45:41;;;;;;;0.68;0.45;;;;;;;;;;4130200;28;20457;-39
2022/08/29 04:47:43;;;;;;;0.50;0.35;;;;;;;;;;4130158;28;20073;-40
2022/08/29 04:49:44;;;;;;;0.55;0.28;;;;;;;;;;4130309;28;20505;-39
2022/08/29 04:51:46;;;;;;;0.68;0.28;;;;;;;;;;4131734;28;20050;-39
2022/08/29 04:53:49;;;;;;;1.35;0.50;;;;;;;;;;4133631;28;20062;-38
2022/08/29 04:56:01;;;;;;;0.43;0.30;;;;;;;;;;4133712;28;20556;-38
2022/08/29 04:58:02;;;;;;;0.20;0.20;;;;;;;;;;4133276;28;20058;-38
2022/08/29 05:00:05;;;;;;;0.20;0.20;;;;;;;;;;4136164;28;20049;-44
2022/08/29 05:02:06;;;;;;;0.80;0.45;;;;;;;;;;4131465;28;20200;-39
2022/08/29 05:04:08;;;;;;;0.52;0.28;;;;;;;;;;4130084;28;20575;-40
2022/08/29 05:06:13;;;;;;;0.75;0.40;;;;;;;;;;4131673;28;20108;-39
2022/08/29 05:08:14;;;;;;;0.40;0.30;;;;;;;;;;4131592;28;20054;-39
2022/08/29 05:10:18;;;;;;;0.40;0.30;;;;;;;;;;4146643;28;20104;-39
2022/08/29 05:12:19;;;;;;;0.20;0.20;;;;;;;;;;4129912;28;20062;-39
2022/08/29 05:14:21;;;;;;;0.77;0.40;;;;;;;;;;4130566;28;20074;-39
2022/08/29 05:16:22;;;;;;;0.40;0.40;;;;;;;;;;4131302;28;20132;-39
2022/08/29 05:18:23;;;;;;;0.70;0.38;;;;;;;;;;4131479;28;20564;-39
2022/08/29 05:20:24;;;;;;;0.88;0.35;;;;;;;;;;4131649;28;20054;-39
2022/08/29 05:22:25;;;;;;;0.22;0.20;;;;;;;;;;4131456;28;20058;-39
2022/08/29 05:24:27;;;;;;;0.95;0.30;;;;;;;;;;4131384;28;20054;-38
2022/08/29 05:26:34;;;;;;;0.32;0.17;;;;;;;;;;4131963;28;20134;-39
2022/08/29 05:28:35;;;;;;;0.35;0.25;;;;;;;;;;4131059;28;20054;-40
2022/08/29 05:30:37;;;;;;;0.63;0.30;;;;;;;;;;4146148;28;20054;-39
2022/08/29 05:32:39;;;;;;;0.30;0.28;;;;;;;;;;4131403;28;20054;-38
2022/08/29 05:34:41;;;;;;;0.40;0.20;;;;;;;;;;4146316;28;20054;-38
2022/08/29 05:36:43;;;;;;;0.50;0.30;;;;;;;;;;4131205;28;20058;-39
2022/08/29 05:38:45;;;;;;;0.35;0.20;;;;;;;;;;4129899;28;20121;-39
2022/08/29 05:40:46;;;;;;;0.30;0.20;;;;;;;;;;4146361;28;20054;-39
2022/08/29 05:42:47;;;;;;;0.38;0.20;;;;;;;;;;4130799;28;20065;-39
2022/08/29 05:44:48;;;;;;;0.30;0.30;;;;;;;;;;4145909;28;20493;-39
2022/08/29 05:46:49;;;;;;;0.70;0.30;;;;;;;;;;4131357;28;20054;-39
2022/08/29 05:48:51;;;;;;;0.77;0.20;;;;;;;;;;4130670;28;20108;-39
2022/08/29 05:50:52;;;;;;;0.65;0.28;;;;;;;;;;4145400;28;20112;-39
2022/08/29 05:52:54;;;;;;;0.30;0.17;;;;;;;;;;4147057;28;20137;-39
2022/08/29 05:54:55;;;;;;;0.32;0.22;;;;;;;;;;4147372;28;20433;-39
2022/08/29 05:56:56;;;;;;;0.50;0.30;;;;;;;;;;4147244;28;20084;-39
2022/08/29 05:58:58;;;;;;;0.50;0.38;;;;;;;;;;4146820;28;20057;-39
2022/08/29 06:00:59;;;;;;;0.20;0.20;;;;;;;;;;4145533;28;20058;-39
2022/08/29 06:03:00;;;;;;;0.22;0.20;;;;;;;;;;4146546;28;20085;-38
2022/08/29 06:05:03;;;;;;;0.30;0.30;;;;;;;;;;4145708;28;20521;-39
2022/08/29 06:07:05;;;;;;;0.68;0.63;;;;;;;;;;4146907;28;20520;-42
2022/08/29 06:09:07;;;;;;;0.98;0.30;;;;;;;;;;4147164;28;20069;-39
2022/08/29 06:11:16;;;;;;;0.20;0.20;;;;;;;;;;4146898;28;20053;-38
2022/08/29 06:13:17;;;;;;;0.30;0.20;;;;;;;;;;4146055;28;20122;-39
2022/08/29 06:15:19;;;;;;;0.20;0.20;;;;;;;;;;4147041;28;20054;-39
2022/08/29 06:17:20;;;;;;;0.20;0.20;;;;;;;;;;4144328;28;20058;-39
2022/08/29 06:19:21;;;;;;;0.68;0.20;;;;;;;;;;4146844;28;20190;-38
2022/08/29 06:21:22;;;;;;;0.47;0.13;;;;;;;;;;4146566;28;20456;-39
2022/08/29 06:23:23;;;;;;;0.45;0.30;;;;;;;;;;4146691;28;20595;-39
2022/08/29 06:25:25;;;;;;;0.38;0.32;;;;;;;;;;4146500;28;20551;-39
2022/08/29 06:27:26;;;;;;;0.95;0.20;;;;;;;;;;4146203;28;20057;-39
2022/08/29 06:29:27;;;;;;;0.13;0.13;;;;;;;;;;4146555;28;20483;-38
2022/08/29 06:31:29;;;;;;;0.30;0.20;;;;;;;;;;4145616;28;20054;-39
2022/08/29 06:33:30;;;;;;;0.20;0.20;;;;;;;;;;4145486;28;20116;-38
2022/08/29 06:35:31;;;;;;;0.35;0.30;;;;;;;;;;4137567;28;20050;-40
2022/08/29 06:37:32;;;;;;;0.20;0.20;;;;;;;;;;4133943;28;20552;-40
2022/08/29 06:39:34;;;;;;;0.55;0.30;;;;;;;;;;4133894;28;20073;-39
2022/08/29 06:41:37;;;;;;;0.40;0.30;;;;;;;;;;4140962;28;20093;-38
2022/08/29 06:43:40;;;;;;;0.35;0.20;;;;;;;;;;4144274;28;20057;-39
2022/08/29 06:45:42;;;;;;;0.32;0.10;;;;;;;;;;4141942;28;20061;-40
2022/08/29 06:47:46;;;;;;;0.47;0.30;;;;;;;;;;4142982;28;20081;-39
2022/08/29 06:49:47;;;;;;;0.30;0.20;;;;;;;;;;4144775;28;20088;-40
2022/08/29 06:51:51;;;;;;;0.10;0.10;;;;;;;;;;4146098;28;20062;-39
2022/08/29 06:53:52;;;;;;;0.13;0.13;;;;;;;;;;4144721;28;20061;-39
2022/08/29 06:55:54;;;;;;;1.77;0.20;;;;;;;;;;4146155;28;20367;-40
2022/08/29 06:57:55;;;;;;;0.10;0.10;;;;;;;;;;4145406;28;20111;-39
2022/08/29 06:59:56;;;;;;;0.20;0.20;;;;;;;;;;4145918;28;20060;-39
2022/08/29 07:01:57;;;;;;;0.17;0.17;;;;;;;;;;4145376;28;20559;-38
2022/08/29 07:03:59;;;;;;;0.45;0.32;;;;;;;;;;4145954;28;20112;-39
2022/08/29 07:06:01;;;;;;;0.60;0.20;;;;;;;;;;4144252;28;20116;-38
2022/08/29 07:08:02;;;;;;;0.35;0.20;;;;;;;;;;4146473;28;20124;-39
2022/08/29 07:10:04;;;;;;;0.50;0.17;;;;;;;;;;4145767;28;20107;-39
2022/08/29 07:12:05;;;;;;;0.20;0.20;;;;;;;;;;4144642;28;20119;-39
2022/08/29 07:14:07;;;;;;;0.40;0.28;;;;;;;;;;4144868;28;20058;-39
2022/08/29 07:16:15;;;;;;;0.43;0.22;;;;;;;;;;4144647;28;20108;-38
2022/08/29 07:18:16;;;;;;;0.10;0.10;;;;;;;;;;4145585;28;20111;-39
2022/08/29 07:20:18;;;;;;;0.35;0.20;;;;;;;;;;4145379;28;20159;-38
2022/08/29 07:22:19;;;;;;;0.73;0.35;;;;;;;;;;4145558;28;20503;-38
2022/08/29 07:24:20;;;;;;;0.20;0.20;;;;;;;;;;4127760;28;20054;-39
2022/08/29 07:26:25;;;;;;;0.40;0.25;;;;;;;;;;4145605;28;20065;-40
2022/08/29 07:28:29;;;;;;;0.20;0.20;;;;;;;;;;4145268;28;20541;-39
2022/08/29 07:30:31;;;;;;;1.05;0.40;;;;;;;;;;4144340;28;20050;-38
2022/08/29 07:32:32;;;;;;;0.40;0.20;;;;;;;;;;4145239;28;20758;-39
2022/08/29 07:34:33;;;;;;;0.57;0.25;;;;;;;;;;4144429;28;20096;-38
2022/08/29 07:36:35;;;;;;;1.60;0.35;;;;;;;;;;4144401;28;20555;-40
2022/08/29 07:38:38;;;;;;;0.43;0.40;;;;;;;;;;4144246;28;20466;-39
2022/08/29 07:40:39;;;;;;;0.45;0.32;;;;;;;;;;4143476;28;20157;-40
2022/08/29 07:42:40;;;;;;;0.85;0.40;;;;;;;;;;4127480;28;20739;-40
2022/08/29 07:44:41;;;;;;;0.47;0.35;;;;;;;;;;4145011;28;20486;-40
2022/08/29 07:46:42;;;;;;;0.50;0.30;;;;;;;;;;4145472;28;20076;-40
2022/08/29 07:48:44;;;;;;;0.35;0.25;;;;;;;;;;4144612;28;20054;-40
2022/08/29 07:50:45;;;;;;;0.60;0.35;;;;;;;;;;4145334;28;20054;-40
2022/08/29 07:52:47;;;;;;;0.70;0.30;;;;;;;;;;4144837;28;20112;-40
2022/08/29 07:54:48;;;;;;;0.38;0.20;;;;;;;;;;4145278;28;20397;-40
2022/08/29 07:56:51;;;;;;;0.50;0.30;;;;;;;;;;4145122;28;20516;-41
2022/08/29 07:58:53;;;;;;;0.75;0.38;;;;;;;;;;4144281;28;20484;-39
2022/08/29 08:00:54;;;;;;;1.92;0.30;;;;;;;;;;4144352;28;20053;-40
2022/08/29 08:02:55;;;;;;;0.70;0.20;;;;;;;;;;4143846;28;20493;-41
2022/08/29 08:04:57;;;;;;;0.43;0.30;;;;;;;;;;4142261;28;20494;-40
2022/08/29 08:06:58;;;;;;;0.35;0.30;;;;;;;;;;4143779;28;20129;-41
2022/08/29 08:09:00;;;;;;;0.88;0.40;;;;;;;;;;4143763;28;20057;-41
2022/08/29 08:11:06;;;;;;;0.73;0.38;;;;;;;;;;4143455;28;20107;-41
2022/08/29 08:13:07;;;;;;;0.30;0.25;;;;;;;;;;4142882;28;20107;-41
2022/08/29 08:15:09;;;;;;;0.30;0.30;;;;;;;;;;4142553;28;20057;-41
2022/08/29 08:17:11;;;;;;;0.65;0.28;;;;;;;;;;4143876;28;20062;-40
2022/08/29 08:19:13;;;;;;;0.93;0.32;;;;;;;;;;4144805;28;20552;-40
2022/08/29 08:21:14;;;;;;;0.30;0.30;;;;;;;;;;4145087;28;20066;-40
2022/08/29 08:23:16;;;;;;;0.47;0.30;;;;;;;;;;4144731;28;20547;-40
2022/08/29 08:25:17;;;;;;;1.10;0.50;;;;;;;;;;4144900;28;20058;-40
2022/08/29 08:27:19;;;;;;;0.50;0.30;;;;;;;;;;4145434;28;20127;-40
2022/08/29 08:29:20;;;;;;;0.50;0.40;;;;;;;;;;4135181;28;20564;-41
2022/08/29 08:31:22;;;;;;;0.28;0.20;;;;;;;;;;4144090;28;20080;-40
2022/08/29 08:33:23;;;;;;;1.30;0.22;;;;;;;;;;4128856;28;20062;-40
2022/08/29 08:35:25;;;;;;;0.20;0.20;;;;;;;;;;4127399;28;20153;-40
2022/08/29 08:37:26;;;;;;;0.50;0.22;;;;;;;;;;4128351;28;20089;-40
2022/08/29 08:39:28;;;;;;;0.60;0.20;;;;;;;;;;4128765;28;20085;-41
2022/08/29 08:41:32;;;;;;;0.50;0.30;;;;;;;;;;4143707;28;20066;-39
2022/08/29 08:43:50;;;;;;;0.32;0.20;;;;;;;;;;4128719;28;20058;-41
2022/08/29 08:45:52;;;;;;;0.20;0.20;;;;;;;;;;4127865;28;20050;-41
2022/08/29 08:48:16;;;;;;;1.88;0.32;;;;;;;;;;4127407;28;20124;-41
2022/08/29 08:50:32;;;;;;;0.20;0.20;;;;;;;;;;4128906;28;20054;-40
2022/08/29 08:52:43;;;;;;;0.75;0.30;;;;;;;;;;4143540;28;20057;-40
2022/08/29 08:55:00;;;;;;;0.32;0.20;;;;;;;;;;4111204;28;20624;-40
2022/08/29 08:57:10;;;;;;;0.40;0.30;;;;;;;;;;4128571;28;20470;-40
2022/08/29 08:59:20;;;;;;;1.63;0.73;;;;;;;;;;4128620;28;20509;-39
2022/08/29 09:01:29;;;;;;;1.65;0.50;;;;;;;;;;4141944;28;20505;-41
2022/08/29 09:03:48;;;;;;;0.90;0.60;;;;;;;;;;4144767;28;20064;-40
2022/08/29 09:06:10;;;;;;;0.43;0.30;;;;;;;;;;4144029;28;20054;-39
2022/08/29 09:08:27;;;;;;;1.95;0.55;;;;;;;;;;4143281;28;20060;-40
2022/08/29 09:10:53;;;;;;;0.25;0.20;;;;;;;;;;4145185;28;20050;-39
2022/08/29 09:13:20;;;;;;;0.25;0.25;;;;;;;;;;4144802;28;20054;-40
2022/08/29 09:15:25;;;;;;;0.38;0.30;;;;;;;;;;4144960;28;20138;-41
2022/08/29 09:17:35;;;;;;;1.88;0.30;;;;;;;;;;4144891;28;20100;-40
2022/08/29 09:19:36;;;;;;;;;;;;;;;;;;4145362;28;20054;-44
2022/08/29 09:21:54;;;;;;;0.85;0.30;;;;;;;;;;4127407;28;20016;-39
2022/08/29 09:23:58;;;;;;;0.38;0.30;;;;;;;;;;4144636;28;20054;-40
2022/08/29 09:25:59;;;;;;;0.13;0.10;;;;;;;;;;4144461;28;20159;-41
2022/08/29 09:28:01;;;;;;;0.20;0.20;;;;;;;;;;4143178;28;20135;-40
2022/08/29 09:30:07;;;;;;;0.30;0.30;;;;;;;;;;4143232;28;20529;-40
2022/08/29 09:32:14;;;;;;;0.30;0.20;;;;;;;;;;4144552;28;20140;-42
2022/08/29 09:34:38;;;;;;;0.32;0.25;;;;;;;;;;4144645;28;20426;-40
2022/08/29 09:36:47;;;;;;;0.43;0.22;;;;;;;;;;4144482;28;20061;-40
2022/08/29 09:38:49;;;;;;;0.40;0.30;;;;;;;;;;4147396;28;20392;-39
2022/08/29 09:40:59;;;;;;;0.50;0.10;;;;;;;;;;4147744;28;20413;-40
2022/08/29 09:43:01;;;;;;;0.52;0.30;;;;;;;;;;4147218;28;20444;-40
2022/08/29 09:45:19;;;;;;;0.35;0.35;;;;;;;;;;4147739;28;20429;-42
2022/08/29 09:47:29;;;;;;;1.05;0.40;;;;;;;;;;4147427;28;20382;-39
2022/08/29 09:49:30;;;;;;;0.32;0.25;;;;;;;;;;4147245;28;20112;-40
2022/08/29 09:51:34;;;;;;;0.47;0.20;;;;;;;;;;4147392;28;20057;-40
2022/08/29 09:53:36;;;;;;;0.35;0.20;;;;;;;;;;4145976;28;20559;-39
2022/08/29 09:55:41;;;;;;;2.45;0.38;;;;;;;;;;4147244;28;20438;-40
2022/08/29 09:57:48;;;;;;;0.50;0.15;;;;;;;;;;4145604;28;20061;-40
2022/08/29 10:00:09;;;;;;;0.30;0.20;;;;;;;;;;4129761;28;20054;-40
2022/08/29 10:02:37;;;;;;;0.28;0.20;;;;;;;;;;4147211;28;20068;-40
2022/08/29 10:04:40;;;;;;;0.20;0.20;;;;;;;;;;4129298;28;20128;-39
2022/08/29 10:06:42;;;;;;;0.52;0.20;;;;;;;;;;4147458;28;20556;-39
2022/08/29 10:09:11;;;;;;;0.63;0.20;;;;;;;;;;4145763;28;20061;-39
2022/08/29 10:11:15;;;;;;;1.40;0.35;;;;;;;;;;4146888;28;20193;-40
2022/08/29 10:13:21;;;;;;;0.50;0.10;;;;;;;;;;4146306;28;20497;-38
2022/08/29 10:15:25;;;;;;;0.38;0.20;;;;;;;;;;4146944;28;20324;-40
2022/08/29 10:20:00;;;;;;;0.10;0.10;;;;;;;;;;4145619;28;20050;-39
2022/08/29 10:22:10;;;;;;;0.43;0.20;;;;;;;;;;4146649;28;20479;-40
2022/08/29 10:24:33;;;;;;;0.32;0.20;;;;;;;;;;4128990;28;20533;-41
2022/08/29 10:26:59;;;;;;;0.20;0.20;;;;;;;;;;4129197;28;20435;-40
2022/08/29 10:29:13;;;;;;;0.65;0.30;;;;;;;;;;4146699;28;20053;-39
2022/08/29 10:31:29;;;;;;;0.30;0.20;;;;;;;;;;4145487;28;20053;-40
2022/08/29 10:33:48;;;;;;;0.47;0.10;;;;;;;;;;4145326;28;20076;-39
2022/08/29 10:35:57;;;;;;;0.10;0.10;;;;;;;;;;4146665;28;20074;-41
2022/08/29 10:38:35;;;;;;;0.20;0.20;;;;;;;;;;4145407;28;20128;-40
2022/08/29 10:40:50;;;;;;;0.75;0.35;;;;;;;;;;4146584;28;20115;-39
2022/08/29 10:43:04;;;;;;;0.22;0.10;;;;;;;;;;4146432;28;20108;-39
2022/08/29 10:45:18;;;;;;;0.10;0.10;;;;;;;;;;4146492;28;20058;-39
2022/08/29 10:47:36;;;;;;;0.38;0.20;;;;;;;;;;4145305;28;20362;-41
2022/08/29 10:49:59;;;;;;;0.20;0.13;;;;;;;;;;4143797;28;20544;-39
2022/08/29 10:52:40;;;;;;;0.20;0.20;;;;;;;;;;4145028;28;20084;-40
2022/08/29 10:54:52;;;;;;;0.40;0.20;;;;;;;;;;4145154;28;20123;-40
2022/08/29 10:56:53;;;;;;;0.90;0.10;;;;;;;;;;4146763;28;20069;-39
2022/08/29 10:59:11;;;;;;;0.45;0.20;;;;;;;;;;4144644;28;20062;-39
2022/08/29 11:01:19;;;;;;;0.10;0.10;;;;;;;;;;4131979;28;20149;-39
2022/08/29 11:03:34;;;;;;;0.17;0.17;;;;;;;;;;4128929;28;20061;-39
2022/08/29 11:05:42;;;;;;;0.55;0.28;;;;;;;;;;4130251;28;20117;-40
2022/08/29 11:07:55;;;;;;;0.40;0.20;;;;;;;;;;4130258;28;20108;-40
2022/08/29 11:09:58;;;;;;;1.17;0.40;;;;;;;;;;4128533;28;20125;-40
2022/08/29 11:12:07;;;;;;;0.40;0.40;;;;;;;;;;4129906;28;20124;-40
2022/08/29 11:14:34;;;;;;;0.70;0.30;;;;;;;;;;4128382;28;20439;-39
2022/08/29 11:16:42;;;;;;;0.20;0.20;;;;;;;;;;4129545;28;20124;-40
2022/08/29 11:18:50;;;;;;;0.38;0.20;;;;;;;;;;4128468;28;20062;-39
2022/08/29 11:21:00;;;;;;;0.68;0.28;;;;;;;;;;4128922;28;20061;-39
2022/08/29 11:23:09;;;;;;;0.38;0.28;;;;;;;;;;4128436;28;20058;-40
2022/08/29 11:25:17;;;;;;;0.10;0.10;;;;;;;;;;4128182;28;20058;-38
2022/08/29 11:27:45;;;;;;;0.73;0.30;;;;;;;;;;4129572;28;20058;-39
2022/08/29 11:29:57;;;;;;;0.20;0.20;;;;;;;;;;4119446;28;20419;-39
2022/08/29 11:32:04;;;;;;;0.98;0.20;;;;;;;;;;4129749;28;20116;-39
2022/08/29 11:34:30;;;;;;;0.30;0.20;;;;;;;;;;4128580;28;20117;-39
2022/08/29 11:37:19;;;;;;;0.88;0.30;;;;;;;;;;4127921;28;20093;-40
2022/08/29 11:39:34;;;;;;;0.10;0.10;;;;;;;;;;4111160;28;20058;-40
2022/08/29 11:41:41;;;;;;;0.25;0.20;;;;;;;;;;4117099;28;20056;-41
2022/08/29 11:43:49;;;;;;;0.45;0.28;;;;;;;;;;4129286;28;20128;-40
2022/08/29 11:46:04;;;;;;;0.45;0.38;;;;;;;;;;4112221;28;20058;-40
2022/08/29 11:48:14;;;;;;;1.67;0.40;;;;;;;;;;4127734;28;20152;-41
2022/08/29 11:50:15;;;;;;;;;;;;;;;;;;4138906;28;20124;-40
2022/08/29 11:52:20;;;;;;;0.20;0.20;;;;;;;;;;4145398;28;19925;-39
2022/08/29 11:54:24;;;;;;;0.80;0.30;;;;;;;;;;4144205;28;20056;-40
2022/08/29 11:56:27;;;;;;;0.57;0.17;;;;;;;;;;4145525;28;20563;-40
2022/08/29 11:58:28;;;;;;;0.30;0.30;;;;;;;;;;4145475;28;20062;-40
2022/08/29 12:00:36;;;;;;;0.40;0.20;;;;;;;;;;4145054;28;20054;-40
2022/08/29 12:02:39;;;;;;;1.02;0.50;;;;;;;;;;4144982;28;20136;-40
2022/08/29 12:04:57;;;;;;;0.95;0.10;;;;;;;;;;4145536;28;20062;-40
2022/08/29 12:07:02;;;;;;;0.10;0.10;;;;;;;;;;4143930;28;20050;-40
2022/08/29 12:09:12;;;;;;;0.50;0.20;;;;;;;;;;4143655;28;20168;-40
2022/08/29 12:11:13;;;;;;;0.30;0.20;;;;;;;;;;4145141;28;20060;-40
2022/08/29 12:13:43;;;;;;;1.00;0.20;;;;;;;;;;4143489;28;20133;-41
2022/08/29 12:15:52;;;;;;;0.43;0.32;;;;;;;;;;4144857;28;20108;-40
2022/08/29 12:17:59;;;;;;;0.45;0.20;;;;;;;;;;4143485;28;20128;-40
2022/08/29 12:20:04;;;;;;;0.47;0.25;;;;;;;;;;4143957;28;20058;-40
2022/08/29 12:22:05;;;;;;;0.52;0.20;;;;;;;;;;4145044;28;20497;-40
2022/08/29 12:24:27;;;;;;;0.35;0.20;;;;;;;;;;4145220;28;20065;-41
2022/08/29 12:26:45;;;;;;;0.55;0.20;;;;;;;;;;4127437;28;20058;-41
2022/08/29 12:28:58;;;;;;;0.30;0.20;;;;;;;;;;4154777;28;20108;-42
2022/08/29 12:31:24;;;;;;;0.30;0.10;;;;;;;;;;4128532;28;20125;-40
2022/08/29 12:33:49;;;;;;;2.50;0.40;;;;;;;;;;4128943;28;20101;-40
2022/08/29 12:36:09;;;;;;;0.95;0.20;;;;;;;;;;4129211;28;20069;-41